sensor_id;sensor_type;location;lat;lon;timestamp;P1;durP1;ratioP1;P2;durP2;ratioP2
71038;SDS011;58692;43.212;27.908;2024-03-17T00:01:39;37.90;;;19.47;;
71038;SDS011;58692;43.212;27.908;2024-03-17T00:04:06;37.45;;;18.95;;
71038;SDS011;58692;43.212;27.908;2024-03-17T00:06:32;40.80;;;19.20;;
71038;SDS011;58692;43.212;27.908;2024-03-17T00:08:58;36.00;;;19.38;;
71038;SDS011;58692;43.212;27.908;2024-03-17T00:11:24;41.00;;;18.25;;
71038;SDS011;58692;43.212;27.908;2024-03-17T00:13:49;38.60;;;19.53;;
71038;SDS011;58692;43.212;27.908;2024-03-17T00:16:15;37.77;;;18.43;;
71038;SDS011;58692;43.212;27.908;2024-03-17T00:18:44;37.55;;;19.33;;
71038;SDS011;58692;43.212;27.908;2024-03-17T00:21:11;40.33;;;20.40;;
71038;SDS011;58692;43.212;27.908;2024-03-17T00:23:38;43.45;;;19.92;;
71038;SDS011;58692;43.212;27.908;2024-03-17T00:26:04;42.57;;;19.70;;
71038;SDS011;58692;43.212;27.908;2024-03-17T00:28:30;40.00;;;19.70;;
71038;SDS011;58692;43.212;27.908;2024-03-17T00:30:55;44.93;;;19.77;;
71038;SDS011;58692;43.212;27.908;2024-03-17T00:33:21;42.00;;;20.30;;
71038;SDS011;58692;43.212;27.908;2024-03-17T00:35:46;43.50;;;20.43;;
71038;SDS011;58692;43.212;27.908;2024-03-17T00:38:12;42.47;;;20.30;;
71038;SDS011;58692;43.212;27.908;2024-03-17T00:40:38;40.77;;;21.00;;
71038;SDS011;58692;43.212;27.908;2024-03-17T00:43:06;42.75;;;20.77;;
71038;SDS011;58692;43.212;27.908;2024-03-17T00:45:31;44.33;;;21.57;;
71038;SDS011;58692;43.212;27.908;2024-03-17T00:47:57;42.53;;;20.05;;
71038;SDS011;58692;43.212;27.908;2024-03-17T00:50:23;43.33;;;20.73;;
71038;SDS011;58692;43.212;27.908;2024-03-17T00:52:48;42.95;;;20.80;;
71038;SDS011;58692;43.212;27.908;2024-03-17T00:55:14;45.10;;;22.33;;
71038;SDS011;58692;43.212;27.908;2024-03-17T00:57:40;43.60;;;22.60;;
71038;SDS011;58692;43.212;27.908;2024-03-17T01:00:06;48.75;;;22.30;;
71038;SDS011;58692;43.212;27.908;2024-03-17T01:02:35;45.65;;;21.48;;
71038;SDS011;58692;43.212;27.908;2024-03-17T01:05:00;40.07;;;19.70;;
71038;SDS011;58692;43.212;27.908;2024-03-17T01:07:26;38.90;;;18.63;;
71038;SDS011;58692;43.212;27.908;2024-03-17T01:09:52;39.60;;;19.77;;
71038;SDS011;58692;43.212;27.908;2024-03-17T01:12:19;35.65;;;19.00;;
71038;SDS011;58692;43.212;27.908;2024-03-17T01:14:44;39.90;;;18.40;;
71038;SDS011;58692;43.212;27.908;2024-03-17T01:17:10;40.40;;;20.30;;
71038;SDS011;58692;43.212;27.908;2024-03-17T01:19:35;38.60;;;18.90;;
71038;SDS011;58692;43.212;27.908;2024-03-17T01:22:01;38.83;;;18.52;;
71038;SDS011;58692;43.212;27.908;2024-03-17T01:24:27;41.57;;;19.70;;
71038;SDS011;58692;43.212;27.908;2024-03-17T01:26:58;39.25;;;20.27;;
71038;SDS011;58692;43.212;27.908;2024-03-17T01:29:24;41.10;;;19.00;;
71038;SDS011;58692;43.212;27.908;2024-03-17T01:31:50;40.60;;;19.50;;
71038;SDS011;58692;43.212;27.908;2024-03-17T01:34:16;39.40;;;18.43;;
71038;SDS011;58692;43.212;27.908;2024-03-17T01:36:42;38.38;;;19.52;;
71038;SDS011;58692;43.212;27.908;2024-03-17T01:39:07;40.20;;;19.53;;
71038;SDS011;58692;43.212;27.908;2024-03-17T01:41:33;42.08;;;21.52;;
71038;SDS011;58692;43.212;27.908;2024-03-17T01:43:58;39.30;;;19.27;;
71038;SDS011;58692;43.212;27.908;2024-03-17T01:46:24;40.67;;;19.33;;
71038;SDS011;58692;43.212;27.908;2024-03-17T01:48:50;39.67;;;18.83;;
71038;SDS011;58692;43.212;27.908;2024-03-17T01:51:16;41.35;;;19.33;;
71038;SDS011;58692;43.212;27.908;2024-03-17T01:53:43;40.08;;;19.90;;
71038;SDS011;58692;43.212;27.908;2024-03-17T01:56:10;38.30;;;19.42;;
71038;SDS011;58692;43.212;27.908;2024-03-17T01:58:36;41.83;;;19.37;;
71038;SDS011;58692;43.212;27.908;2024-03-17T02:01:03;44.00;;;20.25;;
71038;SDS011;58692;43.212;27.908;2024-03-17T02:03:30;38.53;;;19.48;;
71038;SDS011;58692;43.212;27.908;2024-03-17T02:05:57;39.75;;;19.70;;
71038;SDS011;58692;43.212;27.908;2024-03-17T02:08:23;43.80;;;20.45;;
71038;SDS011;58692;43.212;27.908;2024-03-17T02:10:52;38.20;;;20.03;;
71038;SDS011;58692;43.212;27.908;2024-03-17T02:13:19;42.22;;;19.70;;
71038;SDS011;58692;43.212;27.908;2024-03-17T02:15:46;40.25;;;20.33;;
71038;SDS011;58692;43.212;27.908;2024-03-17T02:18:12;43.78;;;20.25;;
71038;SDS011;58692;43.212;27.908;2024-03-17T02:20:39;42.35;;;20.00;;
71038;SDS011;58692;43.212;27.908;2024-03-17T02:23:20;39.47;;;20.13;;
71038;SDS011;58692;43.212;27.908;2024-03-17T02:25:46;44.80;;;20.17;;
71038;SDS011;58692;43.212;27.908;2024-03-17T02:28:13;43.72;;;21.27;;
71038;SDS011;58692;43.212;27.908;2024-03-17T02:30:38;47.13;;;22.23;;
71038;SDS011;58692;43.212;27.908;2024-03-17T02:33:04;48.77;;;21.13;;
71038;SDS011;58692;43.212;27.908;2024-03-17T02:35:29;40.67;;;20.17;;
71038;SDS011;58692;43.212;27.908;2024-03-17T02:37:56;46.33;;;20.17;;
71038;SDS011;58692;43.212;27.908;2024-03-17T02:40:21;41.53;;;21.63;;
71038;SDS011;58692;43.212;27.908;2024-03-17T02:42:47;45.77;;;20.53;;
71038;SDS011;58692;43.212;27.908;2024-03-17T02:45:13;38.47;;;20.05;;
71038;SDS011;58692;43.212;27.908;2024-03-17T02:47:39;40.47;;;19.07;;
71038;SDS011;58692;43.212;27.908;2024-03-17T02:50:05;43.55;;;20.27;;
71038;SDS011;58692;43.212;27.908;2024-03-17T02:52:31;43.50;;;20.10;;
71038;SDS011;58692;43.212;27.908;2024-03-17T02:54:57;45.13;;;22.70;;
71038;SDS011;58692;43.212;27.908;2024-03-17T02:57:23;48.63;;;22.88;;
71038;SDS011;58692;43.212;27.908;2024-03-17T02:59:50;52.58;;;23.98;;
71038;SDS011;58692;43.212;27.908;2024-03-17T03:02:17;49.27;;;24.10;;
71038;SDS011;58692;43.212;27.908;2024-03-17T03:04:42;47.63;;;23.40;;
71038;SDS011;58692;43.212;27.908;2024-03-17T03:07:08;40.92;;;20.73;;
71038;SDS011;58692;43.212;27.908;2024-03-17T03:09:34;39.43;;;19.17;;
71038;SDS011;58692;43.212;27.908;2024-03-17T03:12:00;39.22;;;18.45;;
71038;SDS011;58692;43.212;27.908;2024-03-17T03:14:28;37.70;;;19.23;;
71038;SDS011;58692;43.212;27.908;2024-03-17T03:16:54;34.97;;;16.90;;
71038;SDS011;58692;43.212;27.908;2024-03-17T03:19:19;31.52;;;15.75;;
71038;SDS011;58692;43.212;27.908;2024-03-17T03:21:45;34.70;;;16.80;;
71038;SDS011;58692;43.212;27.908;2024-03-17T03:24:11;35.47;;;17.17;;
71038;SDS011;58692;43.212;27.908;2024-03-17T03:26:39;27.95;;;14.82;;
71038;SDS011;58692;43.212;27.908;2024-03-17T03:29:04;35.03;;;15.10;;
71038;SDS011;58692;43.212;27.908;2024-03-17T03:31:31;32.78;;;14.93;;
71038;SDS011;58692;43.212;27.908;2024-03-17T03:33:57;35.22;;;13.88;;
71038;SDS011;58692;43.212;27.908;2024-03-17T03:36:22;33.63;;;15.60;;
71038;SDS011;58692;43.212;27.908;2024-03-17T03:38:48;32.93;;;15.20;;
71038;SDS011;58692;43.212;27.908;2024-03-17T03:41:14;34.90;;;15.30;;
71038;SDS011;58692;43.212;27.908;2024-03-17T03:43:41;40.75;;;14.68;;
71038;SDS011;58692;43.212;27.908;2024-03-17T03:46:08;33.80;;;15.35;;
71038;SDS011;58692;43.212;27.908;2024-03-17T03:48:34;32.50;;;14.63;;
71038;SDS011;58692;43.212;27.908;2024-03-17T03:51:07;31.40;;;14.63;;
71038;SDS011;58692;43.212;27.908;2024-03-17T03:53:34;30.02;;;15.15;;
71038;SDS011;58692;43.212;27.908;2024-03-17T03:56:02;31.27;;;14.98;;
71038;SDS011;58692;43.212;27.908;2024-03-17T03:58:31;30.47;;;14.80;;
71038;SDS011;58692;43.212;27.908;2024-03-17T04:01:00;34.90;;;14.48;;
71038;SDS011;58692;43.212;27.908;2024-03-17T04:03:28;32.45;;;14.63;;
71038;SDS011;58692;43.212;27.908;2024-03-17T04:06:00;30.37;;;14.93;;
71038;SDS011;58692;43.212;27.908;2024-03-17T04:08:32;30.05;;;14.45;;
71038;SDS011;58692;43.212;27.908;2024-03-17T04:10:58;30.75;;;15.10;;
71038;SDS011;58692;43.212;27.908;2024-03-17T04:13:26;30.50;;;14.18;;
71038;SDS011;58692;43.212;27.908;2024-03-17T04:15:54;32.60;;;14.88;;
71038;SDS011;58692;43.212;27.908;2024-03-17T04:18:23;33.37;;;14.57;;
71038;SDS011;58692;43.212;27.908;2024-03-17T04:20:50;30.70;;;13.98;;
71038;SDS011;58692;43.212;27.908;2024-03-17T04:23:18;32.72;;;15.27;;
71038;SDS011;58692;43.212;27.908;2024-03-17T04:25:44;40.95;;;16.13;;
71038;SDS011;58692;43.212;27.908;2024-03-17T04:28:10;35.77;;;16.87;;
71038;SDS011;58692;43.212;27.908;2024-03-17T04:30:36;53.85;;;26.13;;
71038;SDS011;58692;43.212;27.908;2024-03-17T04:33:02;103.83;;;48.73;;
71038;SDS011;58692;43.212;27.908;2024-03-17T04:35:28;106.97;;;51.10;;
71038;SDS011;58692;43.212;27.908;2024-03-17T04:37:54;87.43;;;39.72;;
71038;SDS011;58692;43.212;27.908;2024-03-17T04:40:22;55.30;;;27.67;;
71038;SDS011;58692;43.212;27.908;2024-03-17T04:42:47;46.90;;;23.08;;
71038;SDS011;58692;43.212;27.908;2024-03-17T04:45:14;85.22;;;40.17;;
71038;SDS011;58692;43.212;27.908;2024-03-17T04:47:39;102.10;;;51.00;;
71038;SDS011;58692;43.212;27.908;2024-03-17T04:50:05;107.50;;;52.43;;
71038;SDS011;58692;43.212;27.908;2024-03-17T04:52:31;116.97;;;57.37;;
71038;SDS011;58692;43.212;27.908;2024-03-17T04:54:57;126.60;;;56.58;;
71038;SDS011;58692;43.212;27.908;2024-03-17T04:57:22;129.40;;;59.87;;
71038;SDS011;58692;43.212;27.908;2024-03-17T04:59:48;139.38;;;61.10;;
71038;SDS011;58692;43.212;27.908;2024-03-17T05:02:13;111.60;;;48.70;;
71038;SDS011;58692;43.212;27.908;2024-03-17T05:04:39;100.53;;;46.30;;
71038;SDS011;58692;43.212;27.908;2024-03-17T05:07:04;108.90;;;46.03;;
71038;SDS011;58692;43.212;27.908;2024-03-17T05:09:30;88.80;;;40.47;;
71038;SDS011;58692;43.212;27.908;2024-03-17T05:11:56;82.97;;;36.83;;
71038;SDS011;58692;43.212;27.908;2024-03-17T05:14:21;68.50;;;30.63;;
71038;SDS011;58692;43.212;27.908;2024-03-17T05:16:49;57.28;;;27.27;;
71038;SDS011;58692;43.212;27.908;2024-03-17T05:19:15;53.30;;;25.40;;
71038;SDS011;58692;43.212;27.908;2024-03-17T05:21:42;45.77;;;21.60;;
71038;SDS011;58692;43.212;27.908;2024-03-17T05:24:09;37.95;;;18.85;;
71038;SDS011;58692;43.212;27.908;2024-03-17T05:26:36;36.90;;;17.45;;
71038;SDS011;58692;43.212;27.908;2024-03-17T05:29:02;33.73;;;16.50;;
71038;SDS011;58692;43.212;27.908;2024-03-17T05:31:27;33.70;;;17.52;;
71038;SDS011;58692;43.212;27.908;2024-03-17T05:33:53;40.03;;;18.43;;
71038;SDS011;58692;43.212;27.908;2024-03-17T05:36:19;38.15;;;18.38;;
71038;SDS011;58692;43.212;27.908;2024-03-17T05:38:46;39.88;;;20.10;;
71038;SDS011;58692;43.212;27.908;2024-03-17T05:41:12;41.20;;;19.70;;
71038;SDS011;58692;43.212;27.908;2024-03-17T05:43:38;42.53;;;20.80;;
71038;SDS011;58692;43.212;27.908;2024-03-17T05:46:05;40.22;;;20.85;;
71038;SDS011;58692;43.212;27.908;2024-03-17T05:48:33;40.35;;;20.83;;
71038;SDS011;58692;43.212;27.908;2024-03-17T05:51:02;39.57;;;19.40;;
71038;SDS011;58692;43.212;27.908;2024-03-17T05:53:28;49.83;;;24.50;;
71038;SDS011;58692;43.212;27.908;2024-03-17T05:55:54;51.25;;;26.77;;
71038;SDS011;58692;43.212;27.908;2024-03-17T05:58:20;57.53;;;31.63;;
71038;SDS011;58692;43.212;27.908;2024-03-17T06:00:46;85.97;;;46.67;;
71038;SDS011;58692;43.212;27.908;2024-03-17T06:03:11;98.57;;;51.88;;
71038;SDS011;58692;43.212;27.908;2024-03-17T06:05:38;95.50;;;52.13;;
71038;SDS011;58692;43.212;27.908;2024-03-17T06:08:06;108.68;;;58.22;;
71038;SDS011;58692;43.212;27.908;2024-03-17T06:10:34;111.43;;;60.65;;
71038;SDS011;58692;43.212;27.908;2024-03-17T06:13:00;113.97;;;63.92;;
71038;SDS011;58692;43.212;27.908;2024-03-17T06:15:27;123.55;;;67.10;;
71038;SDS011;58692;43.212;27.908;2024-03-17T06:17:53;116.20;;;62.53;;
71038;SDS011;58692;43.212;27.908;2024-03-17T06:20:19;128.05;;;69.15;;
71038;SDS011;58692;43.212;27.908;2024-03-17T06:22:46;120.90;;;63.55;;
71038;SDS011;58692;43.212;27.908;2024-03-17T06:25:12;111.55;;;62.45;;
71038;SDS011;58692;43.212;27.908;2024-03-17T06:27:38;105.28;;;57.40;;
71038;SDS011;58692;43.212;27.908;2024-03-17T06:30:04;102.07;;;54.47;;
71038;SDS011;58692;43.212;27.908;2024-03-17T06:32:30;104.18;;;51.58;;
71038;SDS011;58692;43.212;27.908;2024-03-17T06:34:57;88.53;;;49.50;;
71038;SDS011;58692;43.212;27.908;2024-03-17T06:37:23;86.77;;;46.50;;
71038;SDS011;58692;43.212;27.908;2024-03-17T06:39:49;88.68;;;45.92;;
71038;SDS011;58692;43.212;27.908;2024-03-17T06:42:15;80.05;;;41.75;;
71038;SDS011;58692;43.212;27.908;2024-03-17T06:44:41;75.50;;;39.70;;
71038;SDS011;58692;43.212;27.908;2024-03-17T06:47:07;70.65;;;38.55;;
71038;SDS011;58692;43.212;27.908;2024-03-17T06:49:32;55.37;;;29.33;;
71038;SDS011;58692;43.212;27.908;2024-03-17T06:51:58;40.20;;;20.08;;
71038;SDS011;58692;43.212;27.908;2024-03-17T06:54:23;39.00;;;17.20;;
71038;SDS011;58692;43.212;27.908;2024-03-17T06:56:49;33.38;;;14.43;;
71038;SDS011;58692;43.212;27.908;2024-03-17T06:59:16;34.57;;;15.10;;
71038;SDS011;58692;43.212;27.908;2024-03-17T07:01:42;34.60;;;14.48;;
71038;SDS011;58692;43.212;27.908;2024-03-17T07:04:09;30.30;;;13.93;;
71038;SDS011;58692;43.212;27.908;2024-03-17T07:06:36;27.15;;;12.98;;
71038;SDS011;58692;43.212;27.908;2024-03-17T07:09:02;30.33;;;13.30;;
71038;SDS011;58692;43.212;27.908;2024-03-17T07:11:28;29.33;;;13.38;;
71038;SDS011;58692;43.212;27.908;2024-03-17T07:13:54;28.65;;;13.15;;
71038;SDS011;58692;43.212;27.908;2024-03-17T07:16:19;33.50;;;17.47;;
71038;SDS011;58692;43.212;27.908;2024-03-17T07:18:47;36.55;;;19.10;;
71038;SDS011;58692;43.212;27.908;2024-03-17T07:21:12;28.17;;;13.63;;
71038;SDS011;58692;43.212;27.908;2024-03-17T07:23:38;27.80;;;13.90;;
71038;SDS011;58692;43.212;27.908;2024-03-17T07:26:04;29.75;;;13.77;;
71038;SDS011;58692;43.212;27.908;2024-03-17T07:28:30;29.60;;;13.97;;
71038;SDS011;58692;43.212;27.908;2024-03-17T07:30:57;28.73;;;13.60;;
71038;SDS011;58692;43.212;27.908;2024-03-17T07:33:25;39.65;;;21.50;;
71038;SDS011;58692;43.212;27.908;2024-03-17T07:35:53;28.45;;;14.20;;
71038;SDS011;58692;43.212;27.908;2024-03-17T07:38:21;26.93;;;12.77;;
71038;SDS011;58692;43.212;27.908;2024-03-17T07:43:32;24.40;;;12.30;;
71038;SDS011;58692;43.212;27.908;2024-03-17T07:46:00;24.73;;;12.07;;
71038;SDS011;58692;43.212;27.908;2024-03-17T07:48:29;23.67;;;12.25;;
71038;SDS011;58692;43.212;27.908;2024-03-17T07:50:58;21.67;;;11.07;;
71038;SDS011;58692;43.212;27.908;2024-03-17T07:53:26;24.40;;;11.80;;
71038;SDS011;58692;43.212;27.908;2024-03-17T07:55:56;23.45;;;11.70;;
71038;SDS011;58692;43.212;27.908;2024-03-17T07:58:29;23.63;;;12.35;;
71038;SDS011;58692;43.212;27.908;2024-03-17T08:00:58;20.23;;;10.60;;
71038;SDS011;58692;43.212;27.908;2024-03-17T08:03:25;23.00;;;11.53;;
71038;SDS011;58692;43.212;27.908;2024-03-17T08:05:51;20.65;;;10.50;;
71038;SDS011;58692;43.212;27.908;2024-03-17T08:08:17;21.60;;;11.32;;
71038;SDS011;58692;43.212;27.908;2024-03-17T08:10:43;20.05;;;11.00;;
71038;SDS011;58692;43.212;27.908;2024-03-17T08:13:09;22.57;;;12.57;;
71038;SDS011;58692;43.212;27.908;2024-03-17T08:15:35;22.60;;;11.52;;
71038;SDS011;58692;43.212;27.908;2024-03-17T08:18:01;21.08;;;11.52;;
71038;SDS011;58692;43.212;27.908;2024-03-17T08:20:28;21.30;;;11.93;;
71038;SDS011;58692;43.212;27.908;2024-03-17T08:22:54;20.40;;;10.88;;
71038;SDS011;58692;43.212;27.908;2024-03-17T08:25:19;20.25;;;11.25;;
71038;SDS011;58692;43.212;27.908;2024-03-17T08:27:45;19.67;;;11.20;;
71038;SDS011;58692;43.212;27.908;2024-03-17T08:30:11;21.83;;;11.63;;
71038;SDS011;58692;43.212;27.908;2024-03-17T08:32:39;17.77;;;10.40;;
71038;SDS011;58692;43.212;27.908;2024-03-17T08:35:06;20.73;;;10.98;;
71038;SDS011;58692;43.212;27.908;2024-03-17T08:37:31;18.93;;;10.63;;
71038;SDS011;58692;43.212;27.908;2024-03-17T08:39:57;19.25;;;11.25;;
71038;SDS011;58692;43.212;27.908;2024-03-17T08:42:23;21.35;;;11.60;;
71038;SDS011;58692;43.212;27.908;2024-03-17T08:44:48;18.40;;;9.80;;
71038;SDS011;58692;43.212;27.908;2024-03-17T08:47:14;19.77;;;11.57;;
71038;SDS011;58692;43.212;27.908;2024-03-17T08:49:40;21.85;;;11.27;;
71038;SDS011;58692;43.212;27.908;2024-03-17T08:52:06;21.75;;;11.40;;
71038;SDS011;58692;43.212;27.908;2024-03-17T08:54:32;18.97;;;10.33;;
71038;SDS011;58692;43.212;27.908;2024-03-17T08:56:58;23.35;;;11.35;;
71038;SDS011;58692;43.212;27.908;2024-03-17T08:59:23;18.25;;;10.50;;
71038;SDS011;58692;43.212;27.908;2024-03-17T09:01:49;19.87;;;10.70;;
71038;SDS011;58692;43.212;27.908;2024-03-17T09:04:14;20.80;;;11.13;;
71038;SDS011;58692;43.212;27.908;2024-03-17T09:06:40;23.13;;;11.80;;
71038;SDS011;58692;43.212;27.908;2024-03-17T09:09:07;22.03;;;11.07;;
71038;SDS011;58692;43.212;27.908;2024-03-17T09:11:33;20.80;;;11.20;;
71038;SDS011;58692;43.212;27.908;2024-03-17T09:13:58;20.13;;;11.75;;
71038;SDS011;58692;43.212;27.908;2024-03-17T09:16:24;20.57;;;10.70;;
71038;SDS011;58692;43.212;27.908;2024-03-17T09:18:51;22.05;;;11.70;;
71038;SDS011;58692;43.212;27.908;2024-03-17T09:21:16;21.25;;;11.23;;
71038;SDS011;58692;43.212;27.908;2024-03-17T09:23:42;21.90;;;11.60;;
71038;SDS011;58692;43.212;27.908;2024-03-17T09:26:09;24.40;;;11.65;;
71038;SDS011;58692;43.212;27.908;2024-03-17T09:28:36;22.23;;;11.73;;
71038;SDS011;58692;43.212;27.908;2024-03-17T09:31:02;23.50;;;11.85;;
71038;SDS011;58692;43.212;27.908;2024-03-17T09:33:32;21.90;;;12.03;;
71038;SDS011;58692;43.212;27.908;2024-03-17T09:36:00;23.38;;;12.27;;
71038;SDS011;58692;43.212;27.908;2024-03-17T09:38:27;21.25;;;11.18;;
71038;SDS011;58692;43.212;27.908;2024-03-17T09:40:54;20.85;;;11.30;;
71038;SDS011;58692;43.212;27.908;2024-03-17T09:43:23;20.33;;;11.70;;
71038;SDS011;58692;43.212;27.908;2024-03-17T09:45:50;21.40;;;11.73;;
71038;SDS011;58692;43.212;27.908;2024-03-17T09:48:20;22.70;;;12.13;;
71038;SDS011;58692;43.212;27.908;2024-03-17T09:50:49;23.75;;;12.10;;
71038;SDS011;58692;43.212;27.908;2024-03-17T09:53:18;22.67;;;12.05;;
71038;SDS011;58692;43.212;27.908;2024-03-17T09:55:50;21.50;;;11.27;;
71038;SDS011;58692;43.212;27.908;2024-03-17T09:58:18;21.40;;;11.47;;
71038;SDS011;58692;43.212;27.908;2024-03-17T10:00:44;24.33;;;11.85;;
71038;SDS011;58692;43.212;27.908;2024-03-17T10:03:11;18.88;;;10.15;;
71038;SDS011;58692;43.212;27.908;2024-03-17T10:05:38;18.98;;;10.07;;
71038;SDS011;58692;43.212;27.908;2024-03-17T10:08:04;20.05;;;10.38;;
71038;SDS011;58692;43.212;27.908;2024-03-17T10:10:30;20.20;;;10.63;;
71038;SDS011;58692;43.212;27.908;2024-03-17T10:12:55;17.60;;;9.05;;
71038;SDS011;58692;43.212;27.908;2024-03-17T10:15:21;21.83;;;11.03;;
71038;SDS011;58692;43.212;27.908;2024-03-17T10:17:48;20.63;;;10.73;;
71038;SDS011;58692;43.212;27.908;2024-03-17T10:20:16;18.75;;;10.40;;
71038;SDS011;58692;43.212;27.908;2024-03-17T10:25:38;20.43;;;10.73;;
71038;SDS011;58692;43.212;27.908;2024-03-17T10:28:10;19.27;;;10.50;;
71038;SDS011;58692;43.212;27.908;2024-03-17T10:30:37;20.67;;;10.32;;
71038;SDS011;58692;43.212;27.908;2024-03-17T10:33:05;19.02;;;10.25;;
71038;SDS011;58692;43.212;27.908;2024-03-17T10:35:34;21.10;;;10.90;;
71038;SDS011;58692;43.212;27.908;2024-03-17T10:38:04;19.83;;;9.83;;
71038;SDS011;58692;43.212;27.908;2024-03-17T10:40:30;22.55;;;10.10;;
71038;SDS011;58692;43.212;27.908;2024-03-17T10:42:59;18.63;;;10.40;;
71038;SDS011;58692;43.212;27.908;2024-03-17T10:45:26;21.80;;;10.63;;
71038;SDS011;58692;43.212;27.908;2024-03-17T10:47:55;20.25;;;11.20;;
71038;SDS011;58692;43.212;27.908;2024-03-17T10:50:25;20.33;;;10.70;;
71038;SDS011;58692;43.212;27.908;2024-03-17T10:52:58;20.98;;;11.13;;
71038;SDS011;58692;43.212;27.908;2024-03-17T10:55:28;20.17;;;11.25;;
71038;SDS011;58692;43.212;27.908;2024-03-17T10:57:59;22.30;;;11.15;;
71038;SDS011;58692;43.212;27.908;2024-03-17T11:00:29;19.08;;;10.60;;
71038;SDS011;58692;43.212;27.908;2024-03-17T11:02:55;23.73;;;11.00;;
71038;SDS011;58692;43.212;27.908;2024-03-17T11:05:22;18.75;;;10.05;;
71038;SDS011;58692;43.212;27.908;2024-03-17T11:07:50;20.85;;;11.35;;
71038;SDS011;58692;43.212;27.908;2024-03-17T11:10:26;19.10;;;10.55;;
71038;SDS011;58692;43.212;27.908;2024-03-17T11:12:54;21.90;;;12.02;;
71038;SDS011;58692;43.212;27.908;2024-03-17T11:20:34;20.20;;;10.63;;
71038;SDS011;58692;43.212;27.908;2024-03-17T11:23:01;21.65;;;10.43;;
71038;SDS011;58692;43.212;27.908;2024-03-17T11:49:19;18.40;;;10.15;;
71038;SDS011;58692;43.212;27.908;2024-03-17T11:51:47;18.52;;;9.95;;
71038;SDS011;58692;43.212;27.908;2024-03-17T11:54:15;19.63;;;10.43;;
71038;SDS011;58692;43.212;27.908;2024-03-17T11:56:44;19.75;;;10.38;;
71038;SDS011;58692;43.212;27.908;2024-03-17T11:59:11;19.35;;;10.32;;
71038;SDS011;58692;43.212;27.908;2024-03-17T12:01:37;22.80;;;10.90;;
71038;SDS011;58692;43.212;27.908;2024-03-17T12:04:04;18.10;;;9.07;;
71038;SDS011;58692;43.212;27.908;2024-03-17T12:06:31;19.10;;;9.37;;
71038;SDS011;58692;43.212;27.908;2024-03-17T12:09:10;17.40;;;9.10;;
71038;SDS011;58692;43.212;27.908;2024-03-17T12:11:59;19.38;;;9.43;;
71038;SDS011;58692;43.212;27.908;2024-03-17T12:14:27;16.13;;;8.65;;
71038;SDS011;58692;43.212;27.908;2024-03-17T12:19:19;19.07;;;10.07;;
71038;SDS011;58692;43.212;27.908;2024-03-17T12:21:46;19.15;;;10.20;;
71038;SDS011;58692;43.212;27.908;2024-03-17T12:24:16;17.58;;;9.40;;
71038;SDS011;58692;43.212;27.908;2024-03-17T12:26:47;17.10;;;9.17;;
71038;SDS011;58692;43.212;27.908;2024-03-17T12:31:58;20.63;;;10.65;;
71038;SDS011;58692;43.212;27.908;2024-03-17T12:34:29;19.02;;;10.02;;
71038;SDS011;58692;43.212;27.908;2024-03-17T12:36:56;18.58;;;9.40;;
71038;SDS011;58692;43.212;27.908;2024-03-17T12:39:24;19.40;;;9.63;;
71038;SDS011;58692;43.212;27.908;2024-03-17T12:44:35;23.35;;;11.13;;
71038;SDS011;58692;43.212;27.908;2024-03-17T12:47:07;21.48;;;10.65;;
71038;SDS011;58692;43.212;27.908;2024-03-17T12:49:43;20.05;;;10.00;;
71038;SDS011;58692;43.212;27.908;2024-03-17T12:52:19;21.40;;;10.57;;
71038;SDS011;58692;43.212;27.908;2024-03-17T12:57:44;19.67;;;9.63;;
71038;SDS011;58692;43.212;27.908;2024-03-17T13:00:32;21.48;;;10.85;;
71038;SDS011;58692;43.212;27.908;2024-03-17T13:03:01;21.30;;;10.88;;
71038;SDS011;58692;43.212;27.908;2024-03-17T13:05:28;22.53;;;10.77;;
71038;SDS011;58692;43.212;27.908;2024-03-17T13:07:54;20.58;;;10.50;;
71038;SDS011;58692;43.212;27.908;2024-03-17T13:10:22;20.40;;;10.63;;
71038;SDS011;58692;43.212;27.908;2024-03-17T13:12:57;21.85;;;10.57;;
71038;SDS011;58692;43.212;27.908;2024-03-17T13:15:26;19.95;;;9.18;;
71038;SDS011;58692;43.212;27.908;2024-03-17T13:17:53;20.93;;;10.30;;
71038;SDS011;58692;43.212;27.908;2024-03-17T13:20:19;21.77;;;11.15;;
71038;SDS011;58692;43.212;27.908;2024-03-17T13:22:44;23.00;;;11.03;;
71038;SDS011;58692;43.212;27.908;2024-03-17T13:25:18;22.63;;;10.82;;
71038;SDS011;58692;43.212;27.908;2024-03-17T13:27:48;26.48;;;11.07;;
71038;SDS011;58692;43.212;27.908;2024-03-17T13:30:15;24.38;;;11.52;;
71038;SDS011;58692;43.212;27.908;2024-03-17T13:32:41;22.17;;;10.30;;
71038;SDS011;58692;43.212;27.908;2024-03-17T13:35:15;23.70;;;11.65;;
71038;SDS011;58692;43.212;27.908;2024-03-17T13:37:44;22.58;;;11.20;;
71038;SDS011;58692;43.212;27.908;2024-03-17T13:40:11;25.17;;;12.13;;
71038;SDS011;58692;43.212;27.908;2024-03-17T13:42:40;23.27;;;10.95;;
71038;SDS011;58692;43.212;27.908;2024-03-17T13:45:05;23.17;;;10.97;;
71038;SDS011;58692;43.212;27.908;2024-03-17T13:47:35;25.42;;;11.85;;
71038;SDS011;58692;43.212;27.908;2024-03-17T13:50:00;23.23;;;11.57;;
71038;SDS011;58692;43.212;27.908;2024-03-17T13:52:26;25.73;;;12.17;;
71038;SDS011;58692;43.212;27.908;2024-03-17T13:54:53;23.60;;;12.07;;
71038;SDS011;58692;43.212;27.908;2024-03-17T13:57:19;23.70;;;11.85;;
71038;SDS011;58692;43.212;27.908;2024-03-17T13:59:44;28.10;;;12.23;;
71038;SDS011;58692;43.212;27.908;2024-03-17T14:02:11;24.50;;;11.32;;
71038;SDS011;58692;43.212;27.908;2024-03-17T14:04:38;24.93;;;12.27;;
71038;SDS011;58692;43.212;27.908;2024-03-17T14:07:04;25.17;;;11.55;;
71038;SDS011;58692;43.212;27.908;2024-03-17T14:09:30;26.63;;;11.60;;
71038;SDS011;58692;43.212;27.908;2024-03-17T14:11:56;25.70;;;12.27;;
71038;SDS011;58692;43.212;27.908;2024-03-17T14:14:22;24.35;;;12.35;;
71038;SDS011;58692;43.212;27.908;2024-03-17T14:16:48;24.20;;;12.83;;
71038;SDS011;58692;43.212;27.908;2024-03-17T14:19:14;25.08;;;11.68;;
71038;SDS011;58692;43.212;27.908;2024-03-17T14:21:39;27.10;;;12.27;;
71038;SDS011;58692;43.212;27.908;2024-03-17T14:24:05;26.30;;;12.35;;
71038;SDS011;58692;43.212;27.908;2024-03-17T14:26:33;21.35;;;11.02;;
71038;SDS011;58692;43.212;27.908;2024-03-17T14:29:00;26.83;;;13.43;;
71038;SDS011;58692;43.212;27.908;2024-03-17T14:31:30;25.98;;;11.65;;
71038;SDS011;58692;43.212;27.908;2024-03-17T14:33:59;27.17;;;12.60;;
71038;SDS011;58692;43.212;27.908;2024-03-17T14:36:25;25.63;;;11.63;;
71038;SDS011;58692;43.212;27.908;2024-03-17T14:38:55;23.03;;;11.53;;
71038;SDS011;58692;43.212;27.908;2024-03-17T14:41:21;27.23;;;12.93;;
71038;SDS011;58692;43.212;27.908;2024-03-17T14:43:47;24.55;;;11.77;;
71038;SDS011;58692;43.212;27.908;2024-03-17T14:46:12;27.17;;;12.27;;
71038;SDS011;58692;43.212;27.908;2024-03-17T14:48:39;26.98;;;13.55;;
71038;SDS011;58692;43.212;27.908;2024-03-17T14:51:05;26.20;;;12.57;;
71038;SDS011;58692;43.212;27.908;2024-03-17T14:53:31;24.17;;;11.67;;